sensor_id;sensor_type;location;lat;lon;timestamp;pressure;altitude;pressure_sealevel;temperature;humidity
25650;BME280;13505;45.196;5.696;2024-01-30T05:32:04;100875.31;;;3.98;86.11
25650;BME280;13505;45.196;5.696;2024-01-30T05:36:55;100883.09;;;3.92;85.31
25650;BME280;13505;45.196;5.696;2024-01-30T05:41:46;100880.41;;;3.84;86.48
25650;BME280;13505;45.196;5.696;2024-01-30T05:46:36;100875.19;;;3.83;87.51
25650;BME280;13505;45.196;5.696;2024-01-30T05:51:26;100882.34;;;4.07;89.03
25650;BME280;13505;45.196;5.696;2024-01-30T05:56:18;100885.66;;;3.86;86.12
25650;BME280;13505;45.196;5.696;2024-01-30T06:01:08;100889.09;;;3.83;87.19
25650;BME280;13505;45.196;5.696;2024-01-30T06:05:59;100891.72;;;3.83;87.74
25650;BME280;13505;45.196;5.696;2024-01-30T06:10:49;100896.03;;;3.80;87.95
25650;BME280;13505;45.196;5.696;2024-01-30T06:15:40;100892.50;;;3.76;87.91
25650;BME280;13505;45.196;5.696;2024-01-30T06:20:30;100898.56;;;3.72;87.44
25650;BME280;13505;45.196;5.696;2024-01-30T06:25:20;100894.34;;;3.83;88.76
25650;BME280;13505;45.196;5.696;2024-01-30T06:30:11;100907.28;;;3.72;86.51
25650;BME280;13505;45.196;5.696;2024-01-30T06:35:02;100902.94;;;3.76;86.83
25650;BME280;13505;45.196;5.696;2024-01-30T06:39:52;100914.22;;;3.72;87.79
25650;BME280;13505;45.196;5.696;2024-01-30T06:44:42;100916.81;;;3.69;87.33
25650;BME280;13505;45.196;5.696;2024-01-30T06:49:33;100928.13;;;3.68;88.70
25650;BME280;13505;45.196;5.696;2024-01-30T06:54:23;100928.13;;;3.69;89.13
25650;BME280;13505;45.196;5.696;2024-01-30T06:59:13;100935.78;;;3.51;93.70
25650;BME280;13505;45.196;5.696;2024-01-30T07:04:04;100931.66;;;3.73;91.94
25650;BME280;13505;45.196;5.696;2024-01-30T07:08:54;100937.81;;;3.81;90.35
25650;BME280;13505;45.196;5.696;2024-01-30T07:13:44;100945.56;;;3.72;91.29
25650;BME280;13505;45.196;5.696;2024-01-30T07:18:35;100946.56;;;3.85;90.22
25650;BME280;13505;45.196;5.696;2024-01-30T07:23:25;100950.94;;;3.87;91.05
25650;BME280;13505;45.196;5.696;2024-01-30T07:28:15;100954.34;;;3.82;93.24
25650;BME280;13505;45.196;5.696;2024-01-30T07:33:09;100955.28;;;3.87;93.19
25650;BME280;13505;45.196;5.696;2024-01-30T07:37:59;100958.84;;;3.97;92.22
25650;BME280;13505;45.196;5.696;2024-01-30T07:42:50;100966.72;;;4.01;92.19
25650;BME280;13505;45.196;5.696;2024-01-30T07:47:40;100978.28;;;4.24;93.07
25650;BME280;13505;45.196;5.696;2024-01-30T07:52:32;100983.72;;;4.47;90.49
25650;BME280;13505;45.196;5.696;2024-01-30T07:57:22;100983.84;;;4.67;90.79
25650;BME280;13505;45.196;5.696;2024-01-30T08:02:12;100982.16;;;4.74;91.51
25650;BME280;13505;45.196;5.696;2024-01-30T08:07:03;100977.94;;;4.95;90.97
25650;BME280;13505;45.196;5.696;2024-01-30T08:11:54;100989.19;;;4.83;91.85
25650;BME280;13505;45.196;5.696;2024-01-30T08:16:44;100988.56;;;5.23;89.32
25650;BME280;13505;45.196;5.696;2024-01-30T08:21:34;100983.81;;;4.59;94.67
25650;BME280;13505;45.196;5.696;2024-01-30T08:26:26;100986.47;;;4.70;93.40
25650;BME280;13505;45.196;5.696;2024-01-30T08:31:16;100993.53;;;4.82;92.52
25650;BME280;13505;45.196;5.696;2024-01-30T08:36:07;100985.63;;;4.70;94.08
25650;BME280;13505;45.196;5.696;2024-01-30T08:40:57;100987.41;;;4.79;92.86
25650;BME280;13505;45.196;5.696;2024-01-30T08:45:48;100984.88;;;4.91;92.79
25650;BME280;13505;45.196;5.696;2024-01-30T08:50:38;100989.25;;;4.91;92.83
25650;BME280;13505;45.196;5.696;2024-01-30T08:55:28;100982.22;;;4.86;92.48
25650;BME280;13505;45.196;5.696;2024-01-30T09:00:19;100971.97;;;5.22;91.16
25650;BME280;13505;45.196;5.696;2024-01-30T09:05:09;100969.44;;;5.41;90.11
25650;BME280;13505;45.196;5.696;2024-01-30T09:10:00;100974.78;;;5.67;87.15
25650;BME280;13505;45.196;5.696;2024-01-30T09:14:50;100967.94;;;6.14;85.40
25650;BME280;13505;45.196;5.696;2024-01-30T09:19:40;100974.06;;;6.43;83.14
25650;BME280;13505;45.196;5.696;2024-01-30T09:24:31;100971.44;;;6.38;83.24
25650;BME280;13505;45.196;5.696;2024-01-30T09:29:21;100973.16;;;6.91;80.63
25650;BME280;13505;45.196;5.696;2024-01-30T09:34:12;100978.38;;;6.78;79.53
25650;BME280;13505;45.196;5.696;2024-01-30T09:39:03;100981.00;;;6.78;78.97
25650;BME280;13505;45.196;5.696;2024-01-30T09:43:56;100988.75;;;7.36;78.14
25650;BME280;13505;45.196;5.696;2024-01-30T09:48:47;100985.25;;;7.34;75.97
25650;BME280;13505;45.196;5.696;2024-01-30T09:53:38;100982.31;;;8.02;73.58
25650;BME280;13505;45.196;5.696;2024-01-30T09:58:30;100981.28;;;8.22;72.31
25650;BME280;13505;45.196;5.696;2024-01-30T10:03:20;100983.72;;;8.51;72.77
25650;BME280;13505;45.196;5.696;2024-01-30T10:08:11;100978.00;;;9.00;69.68
25650;BME280;13505;45.196;5.696;2024-01-30T10:13:01;100975.25;;;9.14;70.58
25650;BME280;13505;45.196;5.696;2024-01-30T10:17:52;100976.63;;;9.46;71.64
25650;BME280;13505;45.196;5.696;2024-01-30T10:22:42;100979.03;;;9.61;67.42
25650;BME280;13505;45.196;5.696;2024-01-30T10:27:34;100976.16;;;9.80;64.98
25650;BME280;13505;45.196;5.696;2024-01-30T10:32:27;100963.31;;;10.16;63.73
25650;BME280;13505;45.196;5.696;2024-01-30T10:37:18;100961.16;;;10.40;62.96
25650;BME280;13505;45.196;5.696;2024-01-30T10:42:17;100968.88;;;9.30;64.95
25650;BME280;13505;45.196;5.696;2024-01-30T10:47:11;100954.50;;;9.58;64.24
25650;BME280;13505;45.196;5.696;2024-01-30T10:52:05;100955.94;;;9.81;62.66
25650;BME280;13505;45.196;5.696;2024-01-30T10:56:56;100954.91;;;9.91;64.81
25650;BME280;13505;45.196;5.696;2024-01-30T11:01:49;100950.94;;;9.62;62.42
25650;BME280;13505;45.196;5.696;2024-01-30T11:06:41;100943.47;;;9.92;62.36
25650;BME280;13505;45.196;5.696;2024-01-30T11:11:32;100944.50;;;10.41;64.62
25650;BME280;13505;45.196;5.696;2024-01-30T11:16:22;100936.81;;;10.78;62.38
25650;BME280;13505;45.196;5.696;2024-01-30T11:21:13;100930.66;;;10.77;59.16
25650;BME280;13505;45.196;5.696;2024-01-30T11:26:04;100929.41;;;10.97;60.53
25650;BME280;13505;45.196;5.696;2024-01-30T11:31:03;100915.38;;;10.95;58.91
25650;BME280;13505;45.196;5.696;2024-01-30T11:35:53;100915.25;;;11.01;59.57
25650;BME280;13505;45.196;5.696;2024-01-30T11:40:44;100913.56;;;10.98;58.61
25650;BME280;13505;45.196;5.696;2024-01-30T11:45:35;100908.28;;;10.98;58.14
25650;BME280;13505;45.196;5.696;2024-01-30T11:50:26;100901.72;;;11.16;58.70
25650;BME280;13505;45.196;5.696;2024-01-30T11:55:17;100895.69;;;10.66;60.32
25650;BME280;13505;45.196;5.696;2024-01-30T12:00:15;100890.44;;;11.10;61.12
25650;BME280;13505;45.196;5.696;2024-01-30T12:05:06;100880.22;;;11.35;58.95
25650;BME280;13505;45.196;5.696;2024-01-30T12:09:57;100882.66;;;11.02;58.87
25650;BME280;13505;45.196;5.696;2024-01-30T12:14:47;100871.03;;;10.67;60.09
25650;BME280;13505;45.196;5.696;2024-01-30T12:19:37;100870.34;;;11.43;61.55
25650;BME280;13505;45.196;5.696;2024-01-30T12:24:28;100863.72;;;12.01;63.49
25650;BME280;13505;45.196;5.696;2024-01-30T12:29:20;100859.69;;;11.86;58.08
25650;BME280;13505;45.196;5.696;2024-01-30T12:34:14;100858.06;;;11.80;58.42
25650;BME280;13505;45.196;5.696;2024-01-30T12:39:11;100851.84;;;11.02;60.06
25650;BME280;13505;45.196;5.696;2024-01-30T12:44:01;100846.06;;;11.26;60.24
25650;BME280;13505;45.196;5.696;2024-01-30T12:48:51;100836.44;;;11.63;61.54
25650;BME280;13505;45.196;5.696;2024-01-30T12:53:42;100829.38;;;11.63;59.83
25650;BME280;13505;45.196;5.696;2024-01-30T12:58:32;100835.47;;;11.27;61.34
25650;BME280;13505;45.196;5.696;2024-01-30T13:03:22;100826.91;;;11.55;60.47
25650;BME280;13505;45.196;5.696;2024-01-30T13:08:13;100828.75;;;11.52;61.54
25650;BME280;13505;45.196;5.696;2024-01-30T13:13:03;100817.59;;;11.77;61.56
25650;BME280;13505;45.196;5.696;2024-01-30T13:17:54;100803.09;;;11.57;62.53
25650;BME280;13505;45.196;5.696;2024-01-30T13:22:44;100812.09;;;12.21;62.18
25650;BME280;13505;45.196;5.696;2024-01-30T13:27:38;100812.84;;;12.26;62.00
25650;BME280;13505;45.196;5.696;2024-01-30T13:32:28;100809.28;;;11.56;62.41
25650;BME280;13505;45.196;5.696;2024-01-30T13:37:18;100808.94;;;12.06;62.46
25650;BME280;13505;45.196;5.696;2024-01-30T13:42:09;100811.72;;;11.65;62.00
25650;BME280;13505;45.196;5.696;2024-01-30T13:46:59;100808.44;;;11.90;62.91
25650;BME280;13505;45.196;5.696;2024-01-30T13:51:49;100806.78;;;12.21;62.03
25650;BME280;13505;45.196;5.696;2024-01-30T13:56:40;100801.94;;;11.69;62.28
25650;BME280;13505;45.196;5.696;2024-01-30T14:01:31;100803.28;;;11.49;62.69
25650;BME280;13505;45.196;5.696;2024-01-30T14:06:21;100808.25;;;11.63;61.26
25650;BME280;13505;45.196;5.696;2024-01-30T14:11:12;100805.81;;;11.89;62.90
25650;BME280;13505;45.196;5.696;2024-01-30T14:16:02;100808.72;;;12.14;58.76
25650;BME280;13505;45.196;5.696;2024-01-30T14:20:52;100805.06;;;11.85;56.87
25650;BME280;13505;45.196;5.696;2024-01-30T14:25:44;100816.28;;;11.93;56.69
25650;BME280;13505;45.196;5.696;2024-01-30T14:30:34;100802.97;;;11.62;56.05
25650;BME280;13505;45.196;5.696;2024-01-30T14:35:25;100803.03;;;11.95;56.08
25650;BME280;13505;45.196;5.696;2024-01-30T14:40:17;100796.94;;;11.93;55.61
25650;BME280;13505;45.196;5.696;2024-01-30T14:45:07;100798.28;;;12.09;58.10
25650;BME280;13505;45.196;5.696;2024-01-30T14:49:58;100796.03;;;11.92;56.59
25650;BME280;13505;45.196;5.696;2024-01-30T14:54:48;100796.81;;;11.97;57.06
25650;BME280;13505;45.196;5.696;2024-01-30T14:59:38;100800.53;;;11.89;56.38
25650;BME280;13505;45.196;5.696;2024-01-30T15:04:29;100802.34;;;11.86;54.85
25650;BME280;13505;45.196;5.696;2024-01-30T15:09:19;100797.88;;;11.90;56.54
25650;BME280;13505;45.196;5.696;2024-01-30T15:14:12;100796.34;;;11.80;57.49
25650;BME280;13505;45.196;5.696;2024-01-30T15:19:03;100800.03;;;11.74;56.88
25650;BME280;13505;45.196;5.696;2024-01-30T15:23:54;100795.91;;;11.62;59.65
25650;BME280;13505;45.196;5.696;2024-01-30T15:28:45;100784.91;;;11.43;62.75
25650;BME280;13505;45.196;5.696;2024-01-30T15:33:35;100788.69;;;11.31;65.74
25650;BME280;13505;45.196;5.696;2024-01-30T15:38:26;100796.53;;;11.36;66.22
25650;BME280;13505;45.196;5.696;2024-01-30T15:43:17;100785.28;;;11.27;67.88
25650;BME280;13505;45.196;5.696;2024-01-30T15:48:07;100790.81;;;11.15;69.74
25650;BME280;13505;45.196;5.696;2024-01-30T15:52:58;100791.25;;;10.96;70.36
25650;BME280;13505;45.196;5.696;2024-01-30T15:57:48;100801.00;;;10.94;69.75
25650;BME280;13505;45.196;5.696;2024-01-30T16:02:39;100807.47;;;10.79;71.35
25650;BME280;13505;45.196;5.696;2024-01-30T16:07:29;100809.44;;;10.68;71.73
25650;BME280;13505;45.196;5.696;2024-01-30T16:12:21;100803.56;;;10.53;73.90
25650;BME280;13505;45.196;5.696;2024-01-30T16:17:11;100806.47;;;10.38;74.93
25650;BME280;13505;45.196;5.696;2024-01-30T16:22:02;100811.94;;;10.27;75.55
25650;BME280;13505;45.196;5.696;2024-01-30T16:26:52;100822.72;;;10.14;76.47
25650;BME280;13505;45.196;5.696;2024-01-30T16:31:43;100819.41;;;10.03;76.69
25650;BME280;13505;45.196;5.696;2024-01-30T16:36:33;100828.50;;;9.83;78.36
25650;BME280;13505;45.196;5.696;2024-01-30T16:41:23;100834.94;;;9.67;79.77
25650;BME280;13505;45.196;5.696;2024-01-30T16:46:14;100843.81;;;9.59;78.62
25650;BME280;13505;45.196;5.696;2024-01-30T16:51:04;100843.06;;;9.53;78.40
25650;BME280;13505;45.196;5.696;2024-01-30T16:55:54;100854.56;;;9.45;79.23
25650;BME280;13505;45.196;5.696;2024-01-30T17:00:45;100857.44;;;9.30;79.36
25650;BME280;13505;45.196;5.696;2024-01-30T17:05:35;100866.53;;;9.02;84.57
25650;BME280;13505;45.196;5.696;2024-01-30T17:10:26;100887.53;;;9.08;81.47
25650;BME280;13505;45.196;5.696;2024-01-30T17:15:16;100890.41;;;8.87;83.12
25650;BME280;13505;45.196;5.696;2024-01-30T17:20:07;100901.78;;;8.89;81.72
25650;BME280;13505;45.196;5.696;2024-01-30T17:24:57;100899.25;;;8.81;82.13
25650;BME280;13505;45.196;5.696;2024-01-30T17:29:48;100903.75;;;8.71;81.82
25650;BME280;13505;45.196;5.696;2024-01-30T17:34:39;100913.56;;;8.52;84.23
25650;BME280;13505;45.196;5.696;2024-01-30T17:39:29;100914.47;;;8.52;82.88
25650;BME280;13505;45.196;5.696;2024-01-30T17:44:19;100913.66;;;8.41;82.58
25650;BME280;13505;45.196;5.696;2024-01-30T17:49:11;100912.84;;;8.31;82.83
25650;BME280;13505;45.196;5.696;2024-01-30T17:54:02;100916.41;;;8.27;82.96
25650;BME280;13505;45.196;5.696;2024-01-30T17:58:53;100919.09;;;8.19;82.71
25650;BME280;13505;45.196;5.696;2024-01-30T18:03:43;100918.31;;;8.08;82.84
25650;BME280;13505;45.196;5.696;2024-01-30T18:08:34;100923.56;;;8.05;83.27
25650;BME280;13505;45.196;5.696;2024-01-30T18:13:24;100933.28;;;7.96;82.84
25650;BME280;13505;45.196;5.696;2024-01-30T18:18:15;100941.19;;;7.89;83.30
25650;BME280;13505;45.196;5.696;2024-01-30T18:23:06;100934.25;;;7.78;82.69
25650;BME280;13505;45.196;5.696;2024-01-30T18:27:56;100950.94;;;7.74;82.91
25650;BME280;13505;45.196;5.696;2024-01-30T18:32:47;100956.25;;;7.63;81.87
25650;BME280;13505;45.196;5.696;2024-01-30T18:37:38;100966.78;;;7.60;83.70
25650;BME280;13505;45.196;5.696;2024-01-30T18:42:29;100966.78;;;7.57;82.39
25650;BME280;13505;45.196;5.696;2024-01-30T18:47:19;100973.84;;;7.46;82.34
25650;BME280;13505;45.196;5.696;2024-01-30T18:52:09;100968.59;;;7.38;82.46
25650;BME280;13505;45.196;5.696;2024-01-30T18:57:00;100975.63;;;7.36;81.86
25650;BME280;13505;45.196;5.696;2024-01-30T19:01:50;100970.41;;;7.22;82.15
25650;BME280;13505;45.196;5.696;2024-01-30T19:06:40;100982.66;;;7.31;86.26
25650;BME280;13505;45.196;5.696;2024-01-30T19:11:31;100982.50;;;7.66;82.69
25650;BME280;13505;45.196;5.696;2024-01-30T19:16:21;100972.84;;;7.67;80.80
25650;BME280;13505;45.196;5.696;2024-01-30T19:21:11;100970.31;;;7.56;82.15
25650;BME280;13505;45.196;5.696;2024-01-30T19:26:02;100968.53;;;7.60;81.41
25650;BME280;13505;45.196;5.696;2024-01-30T19:30:53;100964.16;;;7.56;82.14
25650;BME280;13505;45.196;5.696;2024-01-30T19:35:44;100973.78;;;7.58;82.10
25650;BME280;13505;45.196;5.696;2024-01-30T19:40:35;100974.63;;;7.63;81.13
25650;BME280;13505;45.196;5.696;2024-01-30T19:45:25;100978.13;;;7.70;80.29
25650;BME280;13505;45.196;5.696;2024-01-30T19:50:16;100973.00;;;7.31;82.93
25650;BME280;13505;45.196;5.696;2024-01-30T19:55:06;100980.00;;;7.37;80.50
25650;BME280;13505;45.196;5.696;2024-01-30T19:59:57;100975.63;;;7.31;80.65
25650;BME280;13505;45.196;5.696;2024-01-30T20:04:48;100974.75;;;7.37;80.05
25650;BME280;13505;45.196;5.696;2024-01-30T20:09:39;100985.28;;;7.26;79.45
25650;BME280;13505;45.196;5.696;2024-01-30T20:14:29;100987.13;;;6.96;81.85
25650;BME280;13505;45.196;5.696;2024-01-30T20:19:20;100993.22;;;7.09;81.14
25650;BME280;13505;45.196;5.696;2024-01-30T20:24:10;100996.72;;;7.02;82.59
25650;BME280;13505;45.196;5.696;2024-01-30T20:29:01;100999.34;;;7.02;78.50
25650;BME280;13505;45.196;5.696;2024-01-30T20:33:51;101018.59;;;6.91;78.21
25650;BME280;13505;45.196;5.696;2024-01-30T20:38:42;101008.13;;;6.85;79.11
25650;BME280;13505;45.196;5.696;2024-01-30T20:43:33;101015.13;;;6.74;79.13
25650;BME280;13505;45.196;5.696;2024-01-30T20:48:23;101014.25;;;6.64;78.29
25650;BME280;13505;45.196;5.696;2024-01-30T20:53:16;101023.00;;;6.53;79.20
25650;BME280;13505;45.196;5.696;2024-01-30T20:58:06;101029.13;;;6.52;80.97
25650;BME280;13505;45.196;5.696;2024-01-30T21:02:57;101020.34;;;6.42;80.56
25650;BME280;13505;45.196;5.696;2024-01-30T21:07:52;101021.22;;;6.37;81.26
25650;BME280;13505;45.196;5.696;2024-01-30T21:12:43;101025.59;;;6.27;80.87
25650;BME280;13505;45.196;5.696;2024-01-30T21:17:33;101029.94;;;6.16;80.85
25650;BME280;13505;45.196;5.696;2024-01-30T21:22:23;101030.78;;;6.08;80.93
25650;BME280;13505;45.196;5.696;2024-01-30T21:27:14;101040.38;;;6.02;81.18
25650;BME280;13505;45.196;5.696;2024-01-30T21:32:04;101029.00;;;5.99;80.52
25650;BME280;13505;45.196;5.696;2024-01-30T21:36:56;101034.19;;;5.82;80.59
25650;BME280;13505;45.196;5.696;2024-01-30T21:41:46;101041.16;;;5.82;81.60
25650;BME280;13505;45.196;5.696;2024-01-30T21:46:36;101043.75;;;5.72;81.31
25650;BME280;13505;45.196;5.696;2024-01-30T21:51:27;101036.78;;;5.70;81.82
25650;BME280;13505;45.196;5.696;2024-01-30T21:56:17;101041.09;;;5.68;82.40
25650;BME280;13505;45.196;5.696;2024-01-30T22:01:08;101028.91;;;5.65;83.17
25650;BME280;13505;45.196;5.696;2024-01-30T22:05:58;101031.50;;;5.64;83.36
25650;BME280;13505;45.196;5.696;2024-01-30T22:10:49;101032.31;;;5.56;83.27
25650;BME280;13505;45.196;5.696;2024-01-30T22:15:39;101051.53;;;5.54;83.55
25650;BME280;13505;45.196;5.696;2024-01-30T22:20:30;101054.09;;;5.46;82.38
25650;BME280;13505;45.196;5.696;2024-01-30T22:25:21;101063.72;;;5.47;83.11
25650;BME280;13505;45.196;5.696;2024-01-30T22:30:11;101061.91;;;5.41;83.36
25650;BME280;13505;45.196;5.696;2024-01-30T22:35:03;101064.53;;;5.37;84.08
25650;BME280;13505;45.196;5.696;2024-01-30T22:39:53;101072.41;;;5.40;82.48
25650;BME280;13505;45.196;5.696;2024-01-30T22:44:44;101054.06;;;5.37;85.02
25650;BME280;13505;45.196;5.696;2024-01-30T22:49:34;101054.91;;;5.33;85.12
25650;BME280;13505;45.196;5.696;2024-01-30T22:54:24;101049.75;;;5.47;86.60
25650;BME280;13505;45.196;5.696;2024-01-30T22:59:15;101058.56;;;5.64;89.11
